Time;durP1;ratioP1;P1;durP2;ratioP2;P2;SDS_P1;SDS_P2;PMS_P1;PMS_P2;Temp;Humidity;BMP_temperature;BMP_pressure;BME280_temperature;BME280_humidity;BME280_pressure;Samples;Min_cycle;Max_cycle;Signal;HPM_P1;HPM_P2
2022/06/06 00:01:54;;;;;;;7.30;5.97;;;15.80;99.90;;;;;;5004963;28;20006;-61
2022/06/06 00:04:21;;;;;;;7.28;5.63;;;15.80;99.90;;;;;;5010784;28;20036;-61
2022/06/06 00:06:47;;;;;;;10.35;5.57;;;15.80;99.90;;;;;;5005155;28;20034;-61
2022/06/06 00:09:15;;;;;;;8.32;5.00;;;15.80;99.90;;;;;;5006167;28;20079;-61
2022/06/06 00:11:42;;;;;;;7.32;5.10;;;15.80;99.90;;;;;;5005934;28;20105;-61
2022/06/06 00:14:10;;;;;;;7.63;5.88;;;15.80;99.90;;;;;;5008985;28;20087;-60
2022/06/06 00:16:36;;;;;;;8.35;4.80;;;15.80;99.90;;;;;;5004807;28;20517;-60
2022/06/06 00:19:03;;;;;;;7.72;5.95;;;15.80;99.90;;;;;;5003701;28;20372;-60
2022/06/06 00:21:30;;;;;;;7.18;5.72;;;15.80;99.90;;;;;;5002502;28;20045;-61
2022/06/06 00:23:59;;;;;;;6.75;5.50;;;15.70;99.90;;;;;;5007453;28;20034;-60
2022/06/06 00:26:27;;;;;;;7.55;6.05;;;15.70;99.90;;;;;;5008319;28;20050;-61
2022/06/06 00:28:52;;;;;;;8.25;5.82;;;15.70;99.90;;;;;;5004976;28;20041;-61
2022/06/06 00:37:11;;;;;;;7.32;6.07;;;15.60;99.90;;;;;;4964738;28;20054;-61
2022/06/06 00:39:38;;;;;;;7.72;6.00;;;15.60;99.90;;;;;;4948571;28;20120;-61
2022/06/06 00:42:12;;;;;;;7.20;6.13;;;15.60;99.90;;;;;;4983358;28;20050;-61
2022/06/06 00:44:40;;;;;;;6.90;5.97;;;15.60;99.90;;;;;;5008662;28;20049;-60
2022/06/06 00:47:17;;;;;;;8.30;5.53;;;15.60;99.90;;;;;;5004853;28;20115;-61
2022/06/06 00:49:52;;;;;;;7.35;5.88;;;15.60;99.90;;;;;;5004518;28;20053;-60
2022/06/06 00:52:24;;;;;;;7.15;5.75;;;15.60;99.90;;;;;;5003246;28;20060;-61
2022/06/06 00:54:52;;;;;;;7.40;5.88;;;15.60;99.90;;;;;;5003829;28;20042;-61
2022/06/06 00:57:22;;;;;;;8.52;5.97;;;15.60;99.90;;;;;;5004624;28;20698;-61
2022/06/06 00:59:49;;;;;;;7.40;5.95;;;15.60;99.90;;;;;;5005800;28;20029;-61
2022/06/06 01:02:15;;;;;;;7.35;5.72;;;15.60;99.90;;;;;;5005069;28;20042;-61
2022/06/06 01:04:42;;;;;;;7.82;5.78;;;15.60;99.90;;;;;;5017838;28;20046;-61
2022/06/06 01:07:09;;;;;;;6.55;5.45;;;15.70;99.90;;;;;;5004337;28;20099;-60
2022/06/06 01:09:37;;;;;;;8.70;6.65;;;15.70;99.90;;;;;;5004263;28;20038;-61
2022/06/06 01:12:07;;;;;;;9.13;6.78;;;15.70;99.90;;;;;;5004442;28;20046;-61
2022/06/06 01:14:37;;;;;;;9.02;6.47;;;15.70;99.90;;;;;;5016804;28;20100;-61
2022/06/06 01:17:18;;;;;;;10.63;8.13;;;15.80;99.90;;;;;;5003766;28;20048;-61
2022/06/06 01:19:56;;;;;;;10.68;8.95;;;15.80;99.90;;;;;;5005946;28;20038;-61
2022/06/06 01:22:30;;;;;;;12.93;10.93;;;15.80;99.90;;;;;;5004735;28;20038;-61
2022/06/06 01:25:24;;;;;;;18.17;13.98;;;15.80;99.90;;;;;;5020688;28;20065;-62
2022/06/06 01:28:08;;;;;;;23.90;16.35;;;15.80;99.90;;;;;;5001959;28;20050;-61
2022/06/06 01:30:46;;;;;;;27.42;18.08;;;15.80;99.90;;;;;;5002404;28;20041;-61
2022/06/06 01:33:14;;;;;;;23.42;16.40;;;15.80;99.90;;;;;;4986674;28;20050;-61
2022/06/06 01:35:43;;;;;;;23.23;17.95;;;15.70;99.90;;;;;;4998110;28;20039;-61
2022/06/06 01:38:10;;;;;;;22.85;16.48;;;15.60;99.90;;;;;;4997073;28;20168;-61
2022/06/06 01:40:59;;;;;;;25.20;15.50;;;15.60;99.90;;;;;;4984260;28;20034;-61
2022/06/06 01:43:52;;;;;;;18.73;13.70;;;15.50;99.90;;;;;;4987093;28;20035;-60
2022/06/06 01:46:30;;;;;;;16.58;11.65;;;15.60;99.90;;;;;;5003369;28;20491;-61
2022/06/06 01:48:57;;;;;;;16.70;11.25;;;15.50;99.90;;;;;;4986940;28;20108;-61
2022/06/06 01:51:29;;;;;;;14.63;11.48;;;15.40;99.90;;;;;;4983923;28;20051;-61
2022/06/06 01:53:55;;;;;;;13.75;10.32;;;15.40;99.90;;;;;;4984507;28;20054;-61
2022/06/06 01:56:33;;;;;;;12.20;9.65;;;15.40;99.90;;;;;;4997465;28;20043;-61
2022/06/06 01:58:59;;;;;;;12.18;8.65;;;15.40;99.90;;;;;;4982971;28;20042;-61
2022/06/06 02:01:25;;;;;;;10.25;8.57;;;15.40;99.90;;;;;;4984226;28;20039;-60
2022/06/06 02:03:52;;;;;;;8.73;7.28;;;15.30;99.90;;;;;;4985866;28;20117;-61
2022/06/06 02:06:18;;;;;;;9.40;7.20;;;15.30;99.90;;;;;;4989901;28;20042;-61
2022/06/06 02:08:44;;;;;;;10.63;8.55;;;15.30;99.90;;;;;;4983969;28;20076;-61
2022/06/06 02:11:11;;;;;;;11.52;8.35;;;15.20;99.90;;;;;;4966751;28;20118;-61
2022/06/06 02:13:37;;;;;;;10.57;7.50;;;15.30;99.90;;;;;;4966524;28;20117;-62
2022/06/06 02:16:03;;;;;;;14.00;9.00;;;15.30;99.90;;;;;;4987085;28;20042;-61
2022/06/06 02:18:29;;;;;;;12.68;10.40;;;15.30;99.90;;;;;;4985956;28;20031;-61
2022/06/06 02:20:55;;;;;;;19.23;12.77;;;15.20;99.90;;;;;;4984701;28;20077;-60
2022/06/06 02:23:21;;;;;;;24.83;16.25;;;15.20;99.90;;;;;;4983535;28;20042;-61
2022/06/06 02:25:47;;;;;;;26.45;18.92;;;15.10;99.90;;;;;;4969939;28;20038;-62
2022/06/06 02:28:15;;;;;;;28.45;18.40;;;15.00;99.90;;;;;;4984030;28;20046;-61
2022/06/06 02:30:42;;;;;;;29.50;18.10;;;15.00;99.90;;;;;;4966254;28;20049;-61
2022/06/06 02:33:08;;;;;;;38.20;21.73;;;15.00;99.90;;;;;;4985715;28;20042;-61
2022/06/06 02:35:40;;;;;;;38.95;21.75;;;15.00;99.90;;;;;;5014578;28;20053;-60
2022/06/06 02:38:06;;;;;;;39.75;22.40;;;14.90;99.90;;;;;;5002915;28;20034;-61
2022/06/06 02:40:32;;;;;;;36.20;21.38;;;14.90;99.90;;;;;;5002836;28;20038;-61
2022/06/06 02:42:58;;;;;;;34.15;20.17;;;14.90;99.90;;;;;;5002640;28;20038;-61
2022/06/06 02:45:25;;;;;;;40.28;23.38;;;14.90;99.90;;;;;;5003336;28;20118;-60
2022/06/06 02:47:53;;;;;;;33.90;21.50;;;14.80;99.90;;;;;;5004751;28;20138;-61
2022/06/06 02:50:23;;;;;;;39.70;20.92;;;14.80;99.90;;;;;;5006412;28;20042;-61
2022/06/06 02:52:48;;;;;;;34.40;19.48;;;14.80;99.90;;;;;;5005396;28;20372;-61
2022/06/06 02:55:15;;;;;;;28.83;18.70;;;14.80;99.90;;;;;;5010020;28;20045;-61
2022/06/06 02:57:43;;;;;;;31.67;18.85;;;14.70;99.90;;;;;;5006552;28;20038;-61
2022/06/06 03:00:13;;;;;;;33.13;18.50;;;14.80;99.90;;;;;;5003351;28;20095;-61
2022/06/06 03:02:38;;;;;;;28.80;17.73;;;14.80;99.90;;;;;;5006622;28;20471;-61
2022/06/06 03:05:06;;;;;;;26.52;14.95;;;14.70;99.90;;;;;;5017703;28;20120;-61
2022/06/06 03:07:40;;;;;;;19.73;11.27;;;14.70;99.90;;;;;;5006064;28;20099;-61
2022/06/06 03:10:37;;;;;;;19.13;10.38;;;14.70;99.90;;;;;;5005305;28;20034;-60
2022/06/06 03:13:46;;;;;;;13.85;8.50;;;14.70;99.90;;;;;;5013365;28;20061;-60
2022/06/06 03:22:25;;;;;;;20.67;11.70;;;14.60;99.90;;;;;;5005463;28;20041;-61
2022/06/06 03:25:19;;;;;;;21.63;11.75;;;14.60;99.90;;;;;;5015752;28;20082;-61
2022/06/06 03:28:19;;;;;;;18.20;10.18;;;14.50;99.90;;;;;;5008076;28;20042;-61
2022/06/06 03:31:13;;;;;;;17.13;10.07;;;14.50;99.90;;;;;;5004984;28;20038;-60
2022/06/06 03:33:50;;;;;;;16.35;9.85;;;14.50;99.90;;;;;;5003959;28;20519;-60
2022/06/06 03:36:41;;;;;;;17.33;9.57;;;14.50;99.90;;;;;;5013021;28;20042;-59
2022/06/06 03:39:29;;;;;;;16.20;9.27;;;14.40;99.90;;;;;;5005283;28;20109;-59
2022/06/06 03:42:10;;;;;;;18.00;9.93;;;14.40;99.90;;;;;;5004215;28;20030;-60
2022/06/06 03:44:55;;;;;;;16.63;10.65;;;14.30;99.90;;;;;;5011966;28;20111;-59
2022/06/06 03:47:46;;;;;;;19.77;10.40;;;14.40;99.90;;;;;;5003880;28;20074;-59
2022/06/06 03:50:57;;;;;;;17.58;10.90;;;14.30;99.90;;;;;;5004834;28;20053;-60
2022/06/06 03:53:45;;;;;;;19.27;11.50;;;14.30;99.90;;;;;;5004349;28;20062;-60
2022/06/06 03:56:29;;;;;;;19.60;11.95;;;14.40;99.90;;;;;;5010394;28;20047;-60
2022/06/06 03:58:56;;;;;;;21.92;12.48;;;14.30;99.90;;;;;;5002788;28;20027;-60
2022/06/06 04:01:23;;;;;;;21.65;12.77;;;14.30;99.90;;;;;;5004781;28;20120;-61
2022/06/06 04:03:50;;;;;;;20.65;12.88;;;14.30;99.90;;;;;;5004072;28;20054;-60
2022/06/06 04:06:19;;;;;;;24.50;12.35;;;14.40;99.90;;;;;;5013291;28;20042;-60
2022/06/06 04:08:45;;;;;;;19.73;12.02;;;14.40;99.90;;;;;;5004295;28;20040;-60
2022/06/06 04:11:40;;;;;;;19.42;12.32;;;14.40;99.90;;;;;;5004351;28;20066;-61
2022/06/06 04:14:24;;;;;;;21.17;12.75;;;14.40;99.90;;;;;;5004709;28;20500;-60
2022/06/06 04:17:21;;;;;;;17.13;10.93;;;14.40;99.90;;;;;;5004657;28;20046;-61
2022/06/06 04:19:52;;;;;;;19.88;11.18;;;14.40;99.90;;;;;;5005995;28;20045;-60
2022/06/06 04:22:21;;;;;;;19.40;12.52;;;14.50;99.90;;;;;;5005774;28;20105;-60
2022/06/06 04:25:07;;;;;;;18.90;12.18;;;14.50;99.90;;;;;;5011631;28;20103;-60
2022/06/06 04:28:00;;;;;;;18.38;10.88;;;14.40;99.90;;;;;;5002606;28;20045;-61
2022/06/06 04:31:01;;;;;;;21.73;11.80;;;14.50;99.90;;;;;;5005652;28;20077;-60
2022/06/06 04:33:50;;;;;;;15.30;10.25;;;14.40;99.90;;;;;;5003235;28;20053;-60
2022/06/06 04:36:38;;;;;;;18.13;10.77;;;14.50;99.90;;;;;;5008384;28;20434;-60
2022/06/06 04:39:45;;;;;;;15.88;9.80;;;14.50;99.90;;;;;;5003455;28;20045;-61
2022/06/06 04:42:37;;;;;;;14.77;9.20;;;14.50;99.90;;;;;;5014198;28;20053;-61
2022/06/06 04:45:34;;;;;;;15.10;9.65;;;14.60;99.90;;;;;;5009600;28;20073;-62
2022/06/06 04:48:01;;;;;;;17.85;10.40;;;14.60;99.90;;;;;;5002850;28;20607;-60
2022/06/06 04:50:27;;;;;;;17.00;10.68;;;14.60;99.90;;;;;;5034725;28;20619;-61
2022/06/06 04:52:59;;;;;;;19.08;10.65;;;14.60;99.90;;;;;;5052129;28;20435;-61
2022/06/06 04:55:26;;;;;;;14.77;9.68;;;14.60;99.90;;;;;;5033768;28;20034;-61
2022/06/06 04:57:55;;;;;;;19.38;11.13;;;14.60;99.90;;;;;;5009060;28;20037;-61
2022/06/06 05:00:21;;;;;;;17.30;11.30;;;14.60;99.90;;;;;;5047908;28;20046;-61
2022/06/06 05:02:47;;;;;;;22.75;13.00;;;14.60;99.90;;;;;;5039786;28;20038;-61
2022/06/06 05:05:13;;;;;;;19.20;10.98;;;14.60;99.90;;;;;;5013124;28;20082;-62
2022/06/06 05:08:07;;;;;;;17.50;10.68;;;14.60;99.90;;;;;;5006305;28;20041;-60
2022/06/06 05:10:54;;;;;;;18.63;10.83;;;14.60;99.90;;;;;;5001663;28;20034;-61
2022/06/06 05:13:29;;;;;;;18.63;10.18;;;14.60;99.90;;;;;;5006163;28;20288;-61
2022/06/06 05:16:26;;;;;;;15.70;9.95;;;14.60;99.90;;;;;;5010225;28;20045;-61
2022/06/06 05:19:25;;;;;;;17.25;10.82;;;14.60;99.90;;;;;;5003834;28;20038;-61
2022/06/06 05:22:03;;;;;;;18.98;11.70;;;14.70;99.90;;;;;;5037372;28;20041;-61
2022/06/06 05:25:05;;;;;;;19.25;11.27;;;14.70;99.90;;;;;;5042023;28;20030;-62
2022/06/06 05:27:45;;;;;;;23.40;12.57;;;14.60;99.90;;;;;;5005730;28;20124;-60
2022/06/06 05:30:25;;;;;;;20.83;12.05;;;14.70;99.90;;;;;;5000379;28;20465;-61
2022/06/06 05:33:12;;;;;;;18.15;11.77;;;14.60;99.90;;;;;;5001582;28;20038;-60
2022/06/06 05:35:59;;;;;;;24.80;12.98;;;14.70;99.90;;;;;;5006065;28;20564;-60
2022/06/06 05:39:13;;;;;;;21.27;12.40;;;14.70;99.90;;;;;;5003247;28;20118;-61
2022/06/06 05:41:53;;;;;;;23.77;13.40;;;14.60;99.90;;;;;;5003790;28;20116;-61
2022/06/06 05:44:28;;;;;;;23.30;12.98;;;14.70;99.90;;;;;;5005366;28;20042;-61
2022/06/06 05:47:05;;;;;;;22.08;12.40;;;14.70;99.90;;;;;;5004293;28;20049;-61
2022/06/06 05:49:45;;;;;;;20.13;11.18;;;14.70;99.90;;;;;;5004088;28;20059;-61
2022/06/06 05:52:36;;;;;;;18.73;11.20;;;14.80;99.90;;;;;;5004122;28;20042;-61
2022/06/06 05:55:25;;;;;;;22.23;11.65;;;14.90;99.90;;;;;;5008662;28;20046;-61
2022/06/06 05:58:03;;;;;;;18.73;11.20;;;14.90;99.90;;;;;;5003145;28;20217;-62
2022/06/06 06:00:53;;;;;;;19.20;11.25;;;14.90;99.90;;;;;;5002937;28;20073;-62
2022/06/06 06:04:00;;;;;;;16.45;10.13;;;15.00;99.90;;;;;;5003979;28;20574;-61
2022/06/06 06:06:52;;;;;;;15.45;10.18;;;15.10;99.90;;;;;;4977685;28;20112;-61
2022/06/06 06:09:39;;;;;;;18.25;10.52;;;15.30;99.90;;;;;;5001765;28;20481;-61
2022/06/06 06:12:43;;;;;;;17.88;10.52;;;16.20;99.90;;;;;;5003247;28;20034;-61
2022/06/06 06:15:33;;;;;;;14.38;8.95;;;17.20;99.90;;;;;;5007386;28;20041;-62
2022/06/06 06:18:02;;;;;;;15.05;7.68;;;18.20;99.90;;;;;;5002676;28;20385;-62
2022/06/06 06:20:38;;;;;;;14.30;8.60;;;18.60;99.90;;;;;;5005372;28;20048;-62
2022/06/06 06:23:08;;;;;;;14.93;9.32;;;18.80;99.90;;;;;;5005407;28;20117;-62
2022/06/06 06:25:39;;;;;;;13.25;8.27;;;18.90;99.90;;;;;;5008491;28;20366;-62
2022/06/06 06:28:10;;;;;;;15.48;9.45;;;18.90;99.90;;;;;;5006553;28;20037;-62
2022/06/06 06:31:03;;;;;;;15.43;8.43;;;18.80;99.90;;;;;;5006784;28;20056;-61
2022/06/06 06:33:52;;;;;;;14.52;8.75;;;18.70;99.90;;;;;;5014236;28;20049;-63
2022/06/06 06:36:39;;;;;;;15.02;8.90;;;18.20;99.90;;;;;;5023292;28;20053;-62
2022/06/06 06:39:19;;;;;;;12.57;8.93;;;17.60;99.90;;;;;;5008472;28;20129;-61
2022/06/06 06:42:17;;;;;;;14.40;9.35;;;17.30;99.90;;;;;;5008150;28;20037;-61
2022/06/06 06:48:03;;;;;;;17.30;9.57;;;16.80;99.90;;;;;;4990447;28;20092;-62
2022/06/06 06:50:39;;;;;;;18.02;10.50;;;16.80;99.90;;;;;;5004202;28;20094;-61
2022/06/06 06:53:13;;;;;;;14.38;7.88;;;16.70;99.90;;;;;;5002788;28;20034;-61
2022/06/06 06:56:00;;;;;;;13.38;8.20;;;16.70;99.90;;;;;;5020749;28;20117;-62
2022/06/06 06:58:33;;;;;;;16.40;9.15;;;16.80;99.90;;;;;;5006218;28;20034;-61
2022/06/06 07:01:04;;;;;;;15.60;8.88;;;16.80;99.90;;;;;;5005410;28;20034;-61
2022/06/06 07:09:46;;;;;;;16.37;10.03;;;16.80;99.90;;;;;;5007973;28;20042;-62
2022/06/06 07:12:26;;;;;;;18.40;11.10;;;16.80;99.90;;;;;;5006475;28;20132;-61
2022/06/06 07:15:26;;;;;;;18.35;11.57;;;16.90;99.90;;;;;;5020520;28;20043;-62
2022/06/06 07:17:58;;;;;;;16.45;10.15;;;17.30;99.90;;;;;;5004258;28;20522;-62
2022/06/06 07:20:26;;;;;;;20.48;12.10;;;17.60;99.90;;;;;;5005753;28;20065;-62
2022/06/06 07:22:59;;;;;;;17.08;11.10;;;17.50;99.90;;;;;;5006421;28;20037;-62
2022/06/06 07:25:27;;;;;;;19.47;11.97;;;17.70;99.90;;;;;;5018649;28;20037;-62
2022/06/06 07:27:53;;;;;;;17.27;11.90;;;17.60;99.90;;;;;;5005608;28;20094;-61
2022/06/06 07:30:24;;;;;;;20.45;12.02;;;17.50;99.90;;;;;;5004920;28;20054;-63
2022/06/06 07:33:08;;;;;;;17.42;10.52;;;17.30;99.90;;;;;;5003408;28;20145;-62
2022/06/06 07:35:48;;;;;;;18.15;11.13;;;17.00;99.90;;;;;;5006977;28;20054;-62
2022/06/06 07:38:32;;;;;;;19.08;9.63;;;16.80;99.90;;;;;;5003808;28;20062;-62
2022/06/06 07:41:06;;;;;;;15.10;9.07;;;16.60;99.90;;;;;;5002107;28;20080;-61
2022/06/06 07:43:44;;;;;;;;;;;16.50;99.90;;;;;;5004164;28;20038;-62
2022/06/06 07:46:21;;;;;;;15.75;8.50;;;16.60;99.90;;;;;;5001748;28;20152;-63
2022/06/06 07:48:51;;;;;;;12.52;7.32;;;16.80;99.90;;;;;;5004779;28;20046;-62
2022/06/06 07:51:43;;;;;;;13.38;7.35;;;16.90;99.90;;;;;;5006171;28;20052;-62
2022/06/06 07:54:42;;;;;;;11.23;6.50;;;17.00;99.90;;;;;;5003140;28;20092;-61
2022/06/06 07:57:45;;;;;;;7.20;4.43;;;17.10;99.90;;;;;;5003755;28;20459;-62
2022/06/06 08:00:18;;;;;;;6.10;3.20;;;17.30;99.90;;;;;;5005457;28;20455;-62
2022/06/06 08:03:12;;;;;;;6.75;2.80;;;17.60;99.90;;;;;;5005399;28;20060;-63
2022/06/06 08:05:56;;;;;;;5.45;2.80;;;18.00;99.90;;;;;;5006376;28;20415;-62
2022/06/06 08:08:40;;;;;;;6.75;3.00;;;18.00;99.90;;;;;;5018155;28;20036;-61
2022/06/06 08:11:41;;;;;;;7.97;3.33;;;17.90;99.90;;;;;;5011308;28;20026;-61
2022/06/06 08:14:21;;;;;;;9.45;3.10;;;17.70;99.90;;;;;;5010145;28;20041;-64
2022/06/06 08:17:10;;;;;;;7.13;3.30;;;17.70;99.90;;;;;;5024819;28;20371;-63
2022/06/06 08:20:12;;;;;;;7.15;2.88;;;17.70;99.90;;;;;;5026813;28;20088;-62
2022/06/06 08:22:42;;;;;;;7.95;3.10;;;17.60;99.90;;;;;;5028330;28;20454;-62
2022/06/06 08:25:11;;;;;;;5.88;2.88;;;17.60;99.90;;;;;;5026779;28;20038;-64
2022/06/06 08:27:42;;;;;;;4.47;2.03;;;17.80;99.90;;;;;;5016438;28;20045;-64
2022/06/06 08:30:10;;;;;;;6.13;2.30;;;17.80;99.90;;;;;;5024677;28;20073;-64
2022/06/06 08:32:35;;;;;;;5.47;2.10;;;17.90;99.90;;;;;;5008987;28;20356;-63
2022/06/06 08:35:01;;;;;;;5.72;2.00;;;17.90;99.90;;;;;;5032414;28;20563;-64
2022/06/06 08:37:30;;;;;;;8.02;1.83;;;17.90;99.90;;;;;;5034121;28;20065;-63
2022/06/06 08:40:35;;;;;;;5.00;2.00;;;17.90;99.90;;;;;;5018639;28;20044;-64
2022/06/06 08:43:27;;;;;;;5.10;2.00;;;18.00;99.90;;;;;;5015874;28;20049;-63
2022/06/06 08:46:20;;;;;;;6.55;2.13;;;17.70;99.90;;;;;;5002011;28;20038;-62
2022/06/06 08:49:00;;;;;;;6.03;2.15;;;17.70;99.90;;;;;;5004403;28;20049;-62
2022/06/06 08:51:48;;;;;;;5.63;1.95;;;17.80;99.90;;;;;;5003265;28;20044;-65
2022/06/06 08:54:24;;;;;;;5.13;2.20;;;17.90;99.90;;;;;;5004336;28;20038;-64
2022/06/06 08:57:07;;;;;;;5.57;2.20;;;17.90;99.90;;;;;;5016057;28;20163;-64
2022/06/06 08:59:54;;;;;;;7.63;2.70;;;17.80;99.90;;;;;;5005290;28;20042;-64
2022/06/06 09:03:01;;;;;;;10.77;2.70;;;17.70;99.90;;;;;;5003655;28;20619;-64
2022/06/06 09:05:39;;;;;;;7.35;3.17;;;17.70;99.90;;;;;;5013164;28;20046;-64
2022/06/06 09:08:47;;;;;;;5.47;3.40;;;17.80;99.90;;;;;;5002987;28;20041;-63
2022/06/06 09:11:55;;;;;;;8.32;3.47;;;17.70;99.90;;;;;;5006671;28;20386;-65
2022/06/06 09:14:33;;;;;;;6.60;3.58;;;17.60;99.90;;;;;;5005839;28;20048;-64
2022/06/06 09:17:19;;;;;;;8.27;3.40;;;17.50;99.90;;;;;;5002289;28;20038;-63
2022/06/06 09:20:07;;;;;;;8.60;3.55;;;17.60;99.90;;;;;;5021825;28;20030;-64
2022/06/06 09:22:51;;;;;;;8.18;4.40;;;17.40;99.90;;;;;;5007191;28;20084;-63
2022/06/06 09:25:32;;;;;;;7.88;4.20;;;17.10;99.90;;;;;;5015539;28;20041;-63
2022/06/06 09:28:16;;;;;;;7.45;3.30;;;17.00;99.90;;;;;;5007228;28;20038;-63
2022/06/06 09:31:02;;;;;;;;;;;16.90;99.90;;;;;;5027198;28;20036;-62
2022/06/06 09:33:58;;;;;;;8.52;2.83;;;17.00;99.90;;;;;;5031537;28;19929;-62
2022/06/06 09:36:46;;;;;;;5.72;2.50;;;17.20;99.90;;;;;;5041824;28;20493;-63
2022/06/06 09:39:31;;;;;;;7.70;2.58;;;17.20;99.90;;;;;;5002769;28;20086;-62
2022/06/06 09:42:29;;;;;;;4.97;2.40;;;17.20;99.90;;;;;;5008279;28;20045;-62
2022/06/06 09:45:17;;;;;;;5.97;2.67;;;17.00;99.90;;;;;;5056994;28;20036;-63
2022/06/06 09:48:04;;;;;;;4.93;2.90;;;16.50;99.90;;;;;;5018200;28;20046;-62
2022/06/06 09:51:07;;;;;;;4.30;3.05;;;16.30;99.90;;;;;;5000233;28;20046;-62
2022/06/06 09:59:32;;;;;;;6.63;3.25;;;16.70;99.90;;;;;;5007205;28;20105;-62
2022/06/06 10:02:18;;;;;;;6.65;3.22;;;16.90;99.90;;;;;;5004712;28;20049;-62
2022/06/06 10:05:02;;;;;;;5.57;2.67;;;17.00;99.90;;;;;;5010506;28;20042;-63
2022/06/06 10:08:06;;;;;;;6.25;2.22;;;17.10;99.90;;;;;;5002292;28;20072;-63
2022/06/06 10:11:05;;;;;;;7.55;2.22;;;17.10;99.90;;;;;;5001134;28;20041;-64
2022/06/06 10:13:49;;;;;;;4.68;2.28;;;17.00;99.90;;;;;;5000708;28;20045;-63
2022/06/06 10:16:51;;;;;;;7.90;3.92;;;17.00;99.90;;;;;;5010013;28;20053;-62
2022/06/06 10:19:52;;;;;;;6.43;2.63;;;17.10;99.90;;;;;;5029842;28;20122;-62
2022/06/06 10:22:32;;;;;;;6.97;2.60;;;17.40;99.90;;;;;;5003314;28;20045;-63
2022/06/06 10:25:24;;;;;;;6.45;2.75;;;17.50;99.90;;;;;;5027215;28;20040;-63
2022/06/06 10:28:10;;;;;;;4.13;2.50;;;17.30;99.90;;;;;;5009550;28;20050;-63
2022/06/06 10:30:50;;;;;;;5.75;3.00;;;17.20;99.90;;;;;;5015600;28;20626;-62
2022/06/06 10:33:39;;;;;;;3.15;2.45;;;17.10;99.90;;;;;;5008596;28;20046;-62
2022/06/06 10:36:20;;;;;;;5.22;2.22;;;17.10;99.90;;;;;;5018134;28;20050;-63
2022/06/06 10:39:16;;;;;;;4.57;2.78;;;17.40;99.90;;;;;;5001121;28;20057;-62
2022/06/06 10:42:26;;;;;;;5.18;2.67;;;17.70;99.90;;;;;;5006596;28;20178;-61
2022/06/06 10:45:12;;;;;;;6.15;2.58;;;17.90;99.90;;;;;;5004146;28;20095;-61
2022/06/06 10:47:49;;;;;;;7.63;3.00;;;17.70;99.90;;;;;;5024821;28;20072;-60
2022/06/06 10:50:25;;;;;;;5.10;2.60;;;17.80;99.90;;;;;;5006526;28;20042;-61
2022/06/06 10:53:02;;;;;;;5.50;2.67;;;17.80;99.90;;;;;;5002295;28;20049;-63
2022/06/06 10:56:07;;;;;;;4.50;2.50;;;17.70;99.90;;;;;;5010076;28;20139;-61
2022/06/06 10:58:47;;;;;;;3.10;2.20;;;17.40;99.90;;;;;;5004561;28;20054;-63
2022/06/06 11:02:05;;;;;;;5.95;2.03;;;17.30;99.90;;;;;;5001266;28;20047;-63
2022/06/06 11:04:34;;;;;;;4.43;2.47;;;17.20;99.90;;;;;;5001891;28;20053;-62
2022/06/06 11:07:20;;;;;;;4.07;2.10;;;17.20;99.90;;;;;;5004723;28;20034;-62
2022/06/06 11:10:00;;;;;;;5.35;2.13;;;17.40;99.90;;;;;;5002590;28;20098;-64
2022/06/06 11:12:29;;;;;;;4.38;2.40;;;17.60;99.90;;;;;;5005547;28;20082;-64
2022/06/06 11:14:57;;;;;;;7.43;2.50;;;17.80;99.90;;;;;;5010047;28;20084;-64
2022/06/06 11:17:44;;;;;;;6.13;2.60;;;17.90;99.90;;;;;;5013461;28;20042;-64
2022/06/06 11:20:29;;;;;;;9.48;2.55;;;18.20;99.90;;;;;;5009820;28;20042;-63
2022/06/06 11:23:00;;;;;;;;;;;18.50;99.90;;;;;;5004704;28;20041;-62
2022/06/06 11:25:26;;;;;;;3.25;1.65;;;18.70;99.90;;;;;;5009089;28;19922;-64
2022/06/06 11:28:43;;;;;;;5.22;1.50;;;18.90;99.90;;;;;;5015194;28;20580;-63
2022/06/06 11:31:24;;;;;;;3.40;1.75;;;19.10;99.90;;;;;;5011788;28;20500;-63
2022/06/06 11:34:14;;;;;;;3.15;1.38;;;19.30;99.90;;;;;;5087111;28;20058;-64
2022/06/06 11:37:43;;;;;;;4.40;1.40;;;19.20;99.90;;;;;;5077924;28;20048;-62
2022/06/06 11:40:42;;;;;;;4.20;1.30;;;19.00;99.90;;;;;;5011108;28;20060;-64
2022/06/06 11:43:38;;;;;;;2.85;1.40;;;19.00;99.90;;;;;;5010142;28;20045;-64
2022/06/06 11:46:25;;;;;;;2.40;1.30;;;19.00;99.90;;;;;;5030208;28;20556;-65
2022/06/06 11:49:11;;;;;;;3.58;1.40;;;18.80;99.90;;;;;;5007925;28;20121;-64
2022/06/06 11:51:53;;;;;;;3.33;1.30;;;18.90;99.90;;;;;;5004047;28;20042;-63
2022/06/06 11:54:37;;;;;;;2.42;1.05;;;19.00;99.90;;;;;;5004209;28;20045;-63
2022/06/06 11:57:23;;;;;;;;;;;18.90;99.90;;;;;;5007848;28;20344;-64
2022/06/06 12:00:21;;;;;;;2.83;0.88;;;18.90;99.90;;;;;;5004896;28;20512;-64
2022/06/06 12:03:11;;;;;;;2.78;1.02;;;18.80;99.90;;;;;;5006990;28;20038;-64
2022/06/06 12:05:51;;;;;;;2.65;1.00;;;18.90;99.90;;;;;;5003066;28;20075;-63
2022/06/06 12:08:44;;;;;;;5.10;1.60;;;18.90;99.90;;;;;;5004632;28;20033;-63
2022/06/06 12:11:37;;;;;;;3.92;1.42;;;19.00;99.90;;;;;;5002758;28;20538;-63
2022/06/06 12:14:35;;;;;;;3.63;1.38;;;19.00;99.90;;;;;;5004611;28;20095;-63
2022/06/06 12:17:19;;;;;;;5.22;1.70;;;19.10;99.90;;;;;;5020357;28;20455;-63
2022/06/06 12:20:14;;;;;;;3.50;1.50;;;19.20;99.90;;;;;;5004818;28;20038;-63
2022/06/06 12:22:55;;;;;;;2.10;1.52;;;19.20;99.90;;;;;;5005172;28;20061;-63
2022/06/06 12:25:52;;;;;;;3.17;1.52;;;19.20;99.90;;;;;;5021637;28;20043;-63
2022/06/06 12:28:45;;;;;;;2.28;1.52;;;19.20;99.90;;;;;;5003434;28;20076;-65
2022/06/06 12:31:23;;;;;;;5.05;1.75;;;19.30;99.90;;;;;;5002972;28;20042;-64
2022/06/06 12:34:12;;;;;;;4.75;2.30;;;19.30;99.90;;;;;;5001651;28;20054;-65
2022/06/06 12:36:52;;;;;;;3.78;1.85;;;19.20;99.90;;;;;;5016902;28;20058;-65
2022/06/06 12:39:27;;;;;;;5.50;2.17;;;19.10;99.90;;;;;;5003344;28;20394;-65
2022/06/06 12:41:56;;;;;;;3.65;1.70;;;18.80;99.90;;;;;;5002241;28;20056;-64
2022/06/06 12:44:57;;;;;;;2.85;1.60;;;18.80;99.90;;;;;;5005146;28;20052;-65
2022/06/06 12:47:25;;;;;;;7.05;1.67;;;18.80;99.90;;;;;;5002700;28;20054;-64
2022/06/06 12:49:51;;;;;;;2.63;1.52;;;18.80;99.90;;;;;;5002366;28;20075;-65
2022/06/06 12:52:22;;;;;;;3.63;1.50;;;18.60;99.90;;;;;;5005445;28;20049;-64
2022/06/06 12:57:31;;;;;;;2.17;1.50;;;18.40;99.90;;;;;;5001379;28;20043;-64
2022/06/06 13:00:10;;;;;;;2.13;1.30;;;18.40;99.90;;;;;;5007244;28;20374;-64
2022/06/06 13:02:53;;;;;;;2.28;1.10;;;18.30;99.90;;;;;;5005727;28;20044;-64
2022/06/06 13:05:35;;;;;;;2.85;1.60;;;18.40;99.90;;;;;;5018818;28;20043;-64
2022/06/06 13:08:12;;;;;;;3.00;1.60;;;18.50;99.90;;;;;;5006176;28;20038;-65
2022/06/06 13:11:09;;;;;;;3.30;1.80;;;18.50;99.90;;;;;;5005073;28;20060;-64
2022/06/06 13:13:53;;;;;;;4.65;2.30;;;18.40;99.90;;;;;;5003870;28;20038;-64
2022/06/06 13:16:36;;;;;;;6.53;2.50;;;18.30;99.90;;;;;;5009816;28;20050;-63
2022/06/06 13:19:03;;;;;;;5.95;2.90;;;18.10;99.90;;;;;;4987315;28;20045;-64
2022/06/06 13:22:05;;;;;;;7.57;3.05;;;17.90;99.90;;;;;;5026793;28;20040;-64
2022/06/06 13:24:52;;;;;;;6.32;3.17;;;17.70;99.90;;;;;;4963635;28;20118;-64
2022/06/06 13:27:40;;;;;;;5.57;3.28;;;17.30;99.90;;;;;;5003872;28;20141;-63
2022/06/06 13:30:54;;;;;;;6.25;3.30;;;17.00;99.90;;;;;;5010523;28;20049;-63
2022/06/06 13:33:58;;;;;;;5.03;3.08;;;16.70;99.90;;;;;;5010113;28;20097;-63
2022/06/06 13:36:36;;;;;;;5.95;3.22;;;16.60;99.90;;;;;;5008005;28;20494;-63
2022/06/06 13:39:39;;;;;;;6.47;2.60;;;16.40;99.90;;;;;;5005757;28;20121;-62
2022/06/06 13:42:19;;;;;;;4.10;2.70;;;16.40;99.90;;;;;;5001974;28;20045;-64
2022/06/06 13:45:12;;;;;;;5.82;2.88;;;16.20;99.90;;;;;;5052169;28;20044;-67
2022/06/06 13:48:10;;;;;;;3.67;2.50;;;16.30;99.90;;;;;;5006918;28;20042;-65
2022/06/06 13:51:10;;;;;;;5.55;2.60;;;16.20;99.90;;;;;;5005957;28;20037;-62
2022/06/06 13:53:42;;;;;;;4.25;2.80;;;16.20;99.90;;;;;;5007201;28;20040;-63
2022/06/06 13:56:33;;;;;;;6.65;2.83;;;16.10;99.90;;;;;;5026671;28;20081;-64
2022/06/06 13:59:38;;;;;;;5.07;2.88;;;16.20;99.90;;;;;;5012454;28;20042;-64
2022/06/06 14:02:36;;;;;;;4.60;3.15;;;16.20;99.90;;;;;;5007267;28;20075;-63
2022/06/06 14:05:28;;;;;;;5.15;3.63;;;16.20;99.90;;;;;;5012049;28;20049;-63
2022/06/06 14:08:20;;;;;;;6.53;4.07;;;16.20;99.90;;;;;;5013157;28;20034;-64
2022/06/06 14:10:58;;;;;;;5.55;3.55;;;16.10;99.90;;;;;;4988597;28;20186;-63
2022/06/06 14:13:35;;;;;;;5.65;3.60;;;16.10;99.90;;;;;;5005456;28;20053;-62
2022/06/06 14:16:02;;;;;;;8.63;4.47;;;16.10;99.90;;;;;;5009147;28;20141;-62
2022/06/06 14:18:32;;;;;;;8.50;3.97;;;16.00;99.90;;;;;;5007217;28;20392;-63
2022/06/06 14:21:00;;;;;;;6.63;4.10;;;15.90;99.90;;;;;;5008151;28;20524;-63
2022/06/06 14:23:35;;;;;;;8.40;4.97;;;15.80;99.90;;;;;;5016015;28;20489;-61